sensor_id;sensor_type;location;lat;lon;timestamp;temperature;humidity
77467;DHT22;66564;42.482;25.548;2023-09-19T00:00:06;21.84;49.54
77467;DHT22;66564;42.482;25.548;2023-09-19T00:02:31;21.94;49.16
77467;DHT22;66564;42.482;25.548;2023-09-19T00:04:58;21.90;49.15
77467;DHT22;66564;42.482;25.548;2023-09-19T00:07:24;21.82;49.23
77467;DHT22;66564;42.482;25.548;2023-09-19T00:09:49;21.87;49.38
77467;DHT22;66564;42.482;25.548;2023-09-19T00:12:15;21.87;49.34
77467;DHT22;66564;42.482;25.548;2023-09-19T00:14:40;21.82;49.90
77467;DHT22;66564;42.482;25.548;2023-09-19T00:17:05;21.79;50.37
77467;DHT22;66564;42.482;25.548;2023-09-19T00:19:36;21.66;50.69
77467;DHT22;66564;42.482;25.548;2023-09-19T00:22:08;21.66;50.75
77467;DHT22;66564;42.482;25.548;2023-09-19T00:24:34;21.69;50.93
77467;DHT22;66564;42.482;25.548;2023-09-19T00:26:59;21.54;50.58
77467;DHT22;66564;42.482;25.548;2023-09-19T00:29:25;21.50;50.52
77467;DHT22;66564;42.482;25.548;2023-09-19T00:31:55;21.53;51.18
77467;DHT22;66564;42.482;25.548;2023-09-19T00:34:22;21.39;50.24
77467;DHT22;66564;42.482;25.548;2023-09-19T00:36:47;21.41;51.16
77467;DHT22;66564;42.482;25.548;2023-09-19T00:39:13;21.47;50.92
77467;DHT22;66564;42.482;25.548;2023-09-19T00:41:38;21.41;50.97
77467;DHT22;66564;42.482;25.548;2023-09-19T00:44:04;21.42;51.11
77467;DHT22;66564;42.482;25.548;2023-09-19T00:46:30;21.41;50.31
77467;DHT22;66564;42.482;25.548;2023-09-19T00:48:58;21.32;51.25
77467;DHT22;66564;42.482;25.548;2023-09-19T00:51:25;21.33;50.67
77467;DHT22;66564;42.482;25.548;2023-09-19T00:53:51;21.23;51.31
77467;DHT22;66564;42.482;25.548;2023-09-19T00:56:18;21.31;51.27
77467;DHT22;66564;42.482;25.548;2023-09-19T00:58:45;21.26;51.44
77467;DHT22;66564;42.482;25.548;2023-09-19T01:01:12;21.32;50.98
77467;DHT22;66564;42.482;25.548;2023-09-19T01:03:40;21.23;51.48
77467;DHT22;66564;42.482;25.548;2023-09-19T01:06:06;21.16;51.50
77467;DHT22;66564;42.482;25.548;2023-09-19T01:08:33;21.19;51.73
77467;DHT22;66564;42.482;25.548;2023-09-19T01:11:24;21.18;51.71
77467;DHT22;66564;42.482;25.548;2023-09-19T01:13:59;21.31;51.57
77467;DHT22;66564;42.482;25.548;2023-09-19T01:17:27;21.33;51.52
77467;DHT22;66564;42.482;25.548;2023-09-19T01:22:21;21.38;51.64
77467;DHT22;66564;42.482;25.548;2023-09-19T01:25:20;21.21;51.90
77467;DHT22;66564;42.482;25.548;2023-09-19T01:30:36;21.23;51.77
77467;DHT22;66564;42.482;25.548;2023-09-19T01:33:06;21.16;52.22
77467;DHT22;66564;42.482;25.548;2023-09-19T01:35:32;21.42;51.60
77467;DHT22;66564;42.482;25.548;2023-09-19T01:37:59;21.35;51.78
77467;DHT22;66564;42.482;25.548;2023-09-19T01:40:25;21.03;52.40
77467;DHT22;66564;42.482;25.548;2023-09-19T01:43:12;21.08;52.40
77467;DHT22;66564;42.482;25.548;2023-09-19T01:51:02;20.98;52.85
77467;DHT22;66564;42.482;25.548;2023-09-19T01:53:45;20.74;53.74
77467;DHT22;66564;42.482;25.548;2023-09-19T01:56:22;20.75;53.76
77467;DHT22;66564;42.482;25.548;2023-09-19T01:58:52;20.81;53.92
77467;DHT22;66564;42.482;25.548;2023-09-19T02:01:22;20.75;53.94
77467;DHT22;66564;42.482;25.548;2023-09-19T02:03:50;20.75;53.83
77467;DHT22;66564;42.482;25.548;2023-09-19T02:06:16;20.58;54.19
77467;DHT22;66564;42.482;25.548;2023-09-19T02:08:43;20.75;54.05
77467;DHT22;66564;42.482;25.548;2023-09-19T02:11:11;20.61;54.27
77467;DHT22;66564;42.482;25.548;2023-09-19T02:13:36;20.74;54.22
77467;DHT22;66564;42.482;25.548;2023-09-19T02:16:03;20.84;53.79
77467;DHT22;66564;42.482;25.548;2023-09-19T02:18:29;20.74;54.33
77467;DHT22;66564;42.482;25.548;2023-09-19T02:20:56;20.69;54.20
77467;DHT22;66564;42.482;25.548;2023-09-19T02:23:21;20.52;54.74
77467;DHT22;66564;42.482;25.548;2023-09-19T02:25:54;20.47;55.08
77467;DHT22;66564;42.482;25.548;2023-09-19T02:28:19;20.37;55.17
77467;DHT22;66564;42.482;25.548;2023-09-19T02:30:48;20.45;54.53
77467;DHT22;66564;42.482;25.548;2023-09-19T02:33:14;20.35;55.29
77467;DHT22;66564;42.482;25.548;2023-09-19T02:35:40;20.43;54.97
77467;DHT22;66564;42.482;25.548;2023-09-19T02:38:05;20.55;54.35
77467;DHT22;66564;42.482;25.548;2023-09-19T02:40:33;20.54;54.25
77467;DHT22;66564;42.482;25.548;2023-09-19T02:43:01;20.54;54.32
77467;DHT22;66564;42.482;25.548;2023-09-19T02:45:27;20.55;54.36
77467;DHT22;66564;42.482;25.548;2023-09-19T02:47:53;20.45;54.48
77467;DHT22;66564;42.482;25.548;2023-09-19T02:50:18;20.67;53.96
77467;DHT22;66564;42.482;25.548;2023-09-19T02:52:45;20.65;53.91
77467;DHT22;66564;42.482;25.548;2023-09-19T02:55:14;20.82;53.73
77467;DHT22;66564;42.482;25.548;2023-09-19T02:57:49;20.77;53.87
77467;DHT22;66564;42.482;25.548;2023-09-19T03:00:16;20.59;54.40
77467;DHT22;66564;42.482;25.548;2023-09-19T03:02:50;20.58;54.53
77467;DHT22;66564;42.482;25.548;2023-09-19T03:05:18;20.78;54.02
77467;DHT22;66564;42.482;25.548;2023-09-19T03:07:44;20.78;53.87
77467;DHT22;66564;42.482;25.548;2023-09-19T03:10:11;20.79;53.57
77467;DHT22;66564;42.482;25.548;2023-09-19T03:12:36;20.81;53.44
77467;DHT22;66564;42.482;25.548;2023-09-19T03:15:03;20.77;53.87
77467;DHT22;66564;42.482;25.548;2023-09-19T03:17:29;20.68;54.09
77467;DHT22;66564;42.482;25.548;2023-09-19T03:19:55;20.75;53.87
77467;DHT22;66564;42.482;25.548;2023-09-19T03:22:22;20.55;54.37
77467;DHT22;66564;42.482;25.548;2023-09-19T03:24:47;20.55;54.75
77467;DHT22;66564;42.482;25.548;2023-09-19T03:27:13;20.35;54.82
77467;DHT22;66564;42.482;25.548;2023-09-19T03:29:44;20.40;54.54
77467;DHT22;66564;42.482;25.548;2023-09-19T03:32:10;20.27;54.83
77467;DHT22;66564;42.482;25.548;2023-09-19T03:34:37;20.25;54.87
77467;DHT22;66564;42.482;25.548;2023-09-19T03:37:05;20.28;54.69
77467;DHT22;66564;42.482;25.548;2023-09-19T03:39:32;20.14;54.95
77467;DHT22;66564;42.482;25.548;2023-09-19T03:41:57;19.96;55.48
77467;DHT22;66564;42.482;25.548;2023-09-19T03:44:23;19.93;55.54
77467;DHT22;66564;42.482;25.548;2023-09-19T03:46:48;19.92;56.00
77467;DHT22;66564;42.482;25.548;2023-09-19T03:49:13;20.09;55.46
77467;DHT22;66564;42.482;25.548;2023-09-19T03:51:39;20.00;55.61
77467;DHT22;66564;42.482;25.548;2023-09-19T03:54:07;20.00;55.74
77467;DHT22;66564;42.482;25.548;2023-09-19T03:56:32;20.06;55.77
77467;DHT22;66564;42.482;25.548;2023-09-19T03:58:58;20.25;55.19
77467;DHT22;66564;42.482;25.548;2023-09-19T04:01:23;20.33;55.19
77467;DHT22;66564;42.482;25.548;2023-09-19T04:03:49;20.31;55.35
77467;DHT22;66564;42.482;25.548;2023-09-19T04:06:17;20.25;55.70
77467;DHT22;66564;42.482;25.548;2023-09-19T04:08:43;20.35;55.56
77467;DHT22;66564;42.482;25.548;2023-09-19T04:11:10;20.41;55.53
77467;DHT22;66564;42.482;25.548;2023-09-19T04:13:36;20.38;55.75
77467;DHT22;66564;42.482;25.548;2023-09-19T04:16:02;20.35;55.99
77467;DHT22;66564;42.482;25.548;2023-09-19T04:18:29;20.31;56.24
77467;DHT22;66564;42.482;25.548;2023-09-19T04:20:58;19.92;57.65
77467;DHT22;66564;42.482;25.548;2023-09-19T04:23:23;19.73;58.49
77467;DHT22;66564;42.482;25.548;2023-09-19T04:25:49;19.43;59.27
77467;DHT22;66564;42.482;25.548;2023-09-19T04:28:15;19.32;59.79
77467;DHT22;66564;42.482;25.548;2023-09-19T04:30:41;19.35;59.76
77467;DHT22;66564;42.482;25.548;2023-09-19T04:33:07;19.55;59.91
77467;DHT22;66564;42.482;25.548;2023-09-19T04:35:34;19.76;59.03
77467;DHT22;66564;42.482;25.548;2023-09-19T04:38:00;20.00;58.42
77467;DHT22;66564;42.482;25.548;2023-09-19T04:40:26;20.17;58.09
77467;DHT22;66564;42.482;25.548;2023-09-19T04:42:58;20.00;58.77
77467;DHT22;66564;42.482;25.548;2023-09-19T04:45:24;19.84;59.28
77467;DHT22;66564;42.482;25.548;2023-09-19T04:47:49;19.69;59.86
77467;DHT22;66564;42.482;25.548;2023-09-19T04:50:15;19.94;59.72
77467;DHT22;66564;42.482;25.548;2023-09-19T04:52:43;20.27;58.24
77467;DHT22;66564;42.482;25.548;2023-09-19T04:55:15;20.41;57.95
77467;DHT22;66564;42.482;25.548;2023-09-19T04:57:45;20.48;57.65
77467;DHT22;66564;42.482;25.548;2023-09-19T05:00:15;20.64;57.77
77467;DHT22;66564;42.482;25.548;2023-09-19T05:02:46;20.75;57.46
77467;DHT22;66564;42.482;25.548;2023-09-19T05:05:12;20.72;57.24
77467;DHT22;66564;42.482;25.548;2023-09-19T05:07:40;20.61;57.36
77467;DHT22;66564;42.482;25.548;2023-09-19T05:10:06;20.57;57.81
77467;DHT22;66564;42.482;25.548;2023-09-19T05:12:34;20.65;57.61
77467;DHT22;66564;42.482;25.548;2023-09-19T05:15:00;20.78;57.65
77467;DHT22;66564;42.482;25.548;2023-09-19T05:17:26;20.88;58.22
77467;DHT22;66564;42.482;25.548;2023-09-19T05:19:52;20.92;59.08
77467;DHT22;66564;42.482;25.548;2023-09-19T05:22:18;20.99;59.42
77467;DHT22;66564;42.482;25.548;2023-09-19T05:24:44;21.08;58.37
77467;DHT22;66564;42.482;25.548;2023-09-19T05:27:12;21.13;60.55
77467;DHT22;66564;42.482;25.548;2023-09-19T05:29:38;21.26;61.04
77467;DHT22;66564;42.482;25.548;2023-09-19T05:32:03;21.45;59.95
77467;DHT22;66564;42.482;25.548;2023-09-19T05:34:30;21.54;63.48
77467;DHT22;66564;42.482;25.548;2023-09-19T05:36:55;21.63;62.63
77467;DHT22;66564;42.482;25.548;2023-09-19T05:39:22;21.69;68.12
77467;DHT22;66564;42.482;25.548;2023-09-19T05:41:48;21.96;73.59
77467;DHT22;66564;42.482;25.548;2023-09-19T05:44:13;22.25;74.65
77467;DHT22;66564;42.482;25.548;2023-09-19T05:46:43;22.54;77.70
77467;DHT22;66564;42.482;25.548;2023-09-19T05:49:10;22.73;79.86
77467;DHT22;66564;42.482;25.548;2023-09-19T05:51:36;22.72;62.34
77467;DHT22;66564;42.482;25.548;2023-09-19T05:54:01;22.76;61.54
77467;DHT22;66564;42.482;25.548;2023-09-19T05:56:27;22.87;62.43
77467;DHT22;66564;42.482;25.548;2023-09-19T05:58:52;22.85;55.88
77467;DHT22;66564;42.482;25.548;2023-09-19T06:01:18;22.87;55.95
77467;DHT22;66564;42.482;25.548;2023-09-19T06:03:44;22.95;55.74
77467;DHT22;66564;42.482;25.548;2023-09-19T06:06:10;23.09;55.47
77467;DHT22;66564;42.482;25.548;2023-09-19T06:08:35;23.15;54.17
77467;DHT22;66564;42.482;25.548;2023-09-19T06:11:01;23.35;56.30
77467;DHT22;66564;42.482;25.548;2023-09-19T06:13:29;23.49;53.93
77467;DHT22;66564;42.482;25.548;2023-09-19T06:15:55;23.81;50.02
77467;DHT22;66564;42.482;25.548;2023-09-19T06:18:25;23.98;51.06
77467;DHT22;66564;42.482;25.548;2023-09-19T06:20:51;24.07;50.39
77467;DHT22;66564;42.482;25.548;2023-09-19T06:23:17;24.13;50.22
77467;DHT22;66564;42.482;25.548;2023-09-19T06:25:43;24.24;50.89
77467;DHT22;66564;42.482;25.548;2023-09-19T06:28:09;24.37;49.41
77467;DHT22;66564;42.482;25.548;2023-09-19T06:30:38;24.45;49.34
77467;DHT22;66564;42.482;25.548;2023-09-19T06:33:07;24.52;50.39
77467;DHT22;66564;42.482;25.548;2023-09-19T06:35:33;24.64;49.79
77467;DHT22;66564;42.482;25.548;2023-09-19T06:38:02;24.69;50.22
77467;DHT22;66564;42.482;25.548;2023-09-19T06:40:28;24.79;49.59
77467;DHT22;66564;42.482;25.548;2023-09-19T06:42:56;24.84;48.86
77467;DHT22;66564;42.482;25.548;2023-09-19T06:45:22;24.76;49.82
77467;DHT22;66564;42.482;25.548;2023-09-19T06:47:49;24.89;46.40
77467;DHT22;66564;42.482;25.548;2023-09-19T06:50:18;25.12;44.40
77467;DHT22;66564;42.482;25.548;2023-09-19T06:52:45;25.16;43.37
77467;DHT22;66564;42.482;25.548;2023-09-19T06:55:15;25.25;46.51
77467;DHT22;66564;42.482;25.548;2023-09-19T06:57:42;25.32;46.15
77467;DHT22;66564;42.482;25.548;2023-09-19T07:00:11;25.42;46.16
77467;DHT22;66564;42.482;25.548;2023-09-19T07:03:04;25.66;41.77
77467;DHT22;66564;42.482;25.548;2023-09-19T07:05:34;25.76;43.87
77467;DHT22;66564;42.482;25.548;2023-09-19T07:08:03;25.87;43.22
77467;DHT22;66564;42.482;25.548;2023-09-19T07:10:29;26.00;43.55
77467;DHT22;66564;42.482;25.548;2023-09-19T07:15:21;26.21;41.33
77467;DHT22;66564;42.482;25.548;2023-09-19T07:17:48;26.23;44.43
77467;DHT22;66564;42.482;25.548;2023-09-19T07:20:13;26.31;44.56
77467;DHT22;66564;42.482;25.548;2023-09-19T07:22:41;26.48;43.01
77467;DHT22;66564;42.482;25.548;2023-09-19T07:25:07;26.68;40.92
77467;DHT22;66564;42.482;25.548;2023-09-19T07:27:34;26.69;43.26
77467;DHT22;66564;42.482;25.548;2023-09-19T07:29:59;26.75;39.71
77467;DHT22;66564;42.482;25.548;2023-09-19T07:32:25;26.82;43.13
77467;DHT22;66564;42.482;25.548;2023-09-19T07:34:50;26.84;42.02
77467;DHT22;66564;42.482;25.548;2023-09-19T07:37:16;26.88;43.39
77467;DHT22;66564;42.482;25.548;2023-09-19T07:39:41;26.94;42.61
77467;DHT22;66564;42.482;25.548;2023-09-19T07:42:08;27.16;41.28
77467;DHT22;66564;42.482;25.548;2023-09-19T07:44:35;27.08;41.56
77467;DHT22;66564;42.482;25.548;2023-09-19T07:47:01;27.08;42.04
77467;DHT22;66564;42.482;25.548;2023-09-19T07:49:31;27.08;40.49
77467;DHT22;66564;42.482;25.548;2023-09-19T07:51:57;27.28;41.16
77467;DHT22;66564;42.482;25.548;2023-09-19T07:54:22;27.28;39.36
77467;DHT22;66564;42.482;25.548;2023-09-19T07:56:48;27.40;39.44
77467;DHT22;66564;42.482;25.548;2023-09-19T07:59:13;27.61;39.65
77467;DHT22;66564;42.482;25.548;2023-09-19T08:01:39;27.66;40.84
77467;DHT22;66564;42.482;25.548;2023-09-19T08:04:07;27.66;40.31
77467;DHT22;66564;42.482;25.548;2023-09-19T08:06:32;27.71;38.88
77467;DHT22;66564;42.482;25.548;2023-09-19T08:08:58;27.73;39.75
77467;DHT22;66564;42.482;25.548;2023-09-19T08:11:25;27.70;39.86
77467;DHT22;66564;42.482;25.548;2023-09-19T08:13:51;27.81;39.66
77467;DHT22;66564;42.482;25.548;2023-09-19T08:16:18;28.04;39.27
77467;DHT22;66564;42.482;25.548;2023-09-19T08:18:48;28.20;38.89
77467;DHT22;66564;42.482;25.548;2023-09-19T08:21:20;28.22;38.68
77467;DHT22;66564;42.482;25.548;2023-09-19T08:23:45;28.25;36.57
77467;DHT22;66564;42.482;25.548;2023-09-19T08:26:11;28.37;36.86
77467;DHT22;66564;42.482;25.548;2023-09-19T08:28:37;28.14;37.73
77467;DHT22;66564;42.482;25.548;2023-09-19T08:31:06;28.07;36.62
77467;DHT22;66564;42.482;25.548;2023-09-19T08:33:33;28.15;38.51
77467;DHT22;66564;42.482;25.548;2023-09-19T08:36:00;28.14;37.46
77467;DHT22;66564;42.482;25.548;2023-09-19T08:38:26;28.25;35.35
77467;DHT22;66564;42.482;25.548;2023-09-19T08:40:57;28.27;36.37
77467;DHT22;66564;42.482;25.548;2023-09-19T08:43:25;28.24;35.91
77467;DHT22;66564;42.482;25.548;2023-09-19T08:45:58;28.21;38.19
77467;DHT22;66564;42.482;25.548;2023-09-19T08:48:32;28.25;36.07
77467;DHT22;66564;42.482;25.548;2023-09-19T08:51:27;28.25;36.12
77467;DHT22;66564;42.482;25.548;2023-09-19T08:54:07;28.37;35.32
77467;DHT22;66564;42.482;25.548;2023-09-19T08:56:35;28.34;35.38
77467;DHT22;66564;42.482;25.548;2023-09-19T08:59:06;28.29;37.05
77467;DHT22;66564;42.482;25.548;2023-09-19T09:01:37;28.43;34.42
77467;DHT22;66564;42.482;25.548;2023-09-19T09:04:08;28.21;37.06
77467;DHT22;66564;42.482;25.548;2023-09-19T09:06:34;28.24;35.38
77467;DHT22;66564;42.482;25.548;2023-09-19T09:09:00;28.40;33.87
77467;DHT22;66564;42.482;25.548;2023-09-19T09:11:26;28.45;34.47
77467;DHT22;66564;42.482;25.548;2023-09-19T09:13:53;28.57;33.73
77467;DHT22;66564;42.482;25.548;2023-09-19T09:16:18;28.45;33.65
77467;DHT22;66564;42.482;25.548;2023-09-19T09:18:45;28.61;33.36
77467;DHT22;66564;42.482;25.548;2023-09-19T09:21:11;28.62;32.89
77467;DHT22;66564;42.482;25.548;2023-09-19T09:23:38;28.72;33.67
77467;DHT22;66564;42.482;25.548;2023-09-19T09:26:04;28.82;33.98
77467;DHT22;66564;42.482;25.548;2023-09-19T09:28:32;28.88;33.13
77467;DHT22;66564;42.482;25.548;2023-09-19T09:30:59;28.58;36.39
77467;DHT22;66564;42.482;25.548;2023-09-19T09:33:33;28.71;35.28
77467;DHT22;66564;42.482;25.548;2023-09-19T09:36:01;28.61;35.36
77467;DHT22;66564;42.482;25.548;2023-09-19T09:38:29;28.51;33.64
77467;DHT22;66564;42.482;25.548;2023-09-19T09:40:59;28.65;33.26
77467;DHT22;66564;42.482;25.548;2023-09-19T09:43:39;28.80;33.99
77467;DHT22;66564;42.482;25.548;2023-09-19T09:48:44;28.80;32.80
77467;DHT22;66564;42.482;25.548;2023-09-19T09:51:29;28.80;33.05
77467;DHT22;66564;42.482;25.548;2023-09-19T09:54:11;28.94;31.89
77467;DHT22;66564;42.482;25.548;2023-09-19T09:56:57;29.05;32.33
77467;DHT22;66564;42.482;25.548;2023-09-19T09:59:50;28.72;32.29
77467;DHT22;66564;42.482;25.548;2023-09-19T10:02:18;28.96;33.09
77467;DHT22;66564;42.482;25.548;2023-09-19T10:04:53;29.12;31.97
77467;DHT22;66564;42.482;25.548;2023-09-19T10:07:30;29.16;30.75
77467;DHT22;66564;42.482;25.548;2023-09-19T10:10:03;28.88;32.33
77467;DHT22;66564;42.482;25.548;2023-09-19T10:12:45;28.89;31.00
77467;DHT22;66564;42.482;25.548;2023-09-19T10:15:14;28.83;31.17
77467;DHT22;66564;42.482;25.548;2023-09-19T10:17:43;28.71;32.26
77467;DHT22;66564;42.482;25.548;2023-09-19T10:20:15;28.85;31.09
77467;DHT22;66564;42.482;25.548;2023-09-19T10:22:59;28.89;31.02
77467;DHT22;66564;42.482;25.548;2023-09-19T10:25:27;28.87;31.11
77467;DHT22;66564;42.482;25.548;2023-09-19T10:28:11;28.68;32.46
77467;DHT22;66564;42.482;25.548;2023-09-19T10:30:38;28.59;31.98
77467;DHT22;66564;42.482;25.548;2023-09-19T10:33:09;28.68;31.37
77467;DHT22;66564;42.482;25.548;2023-09-19T10:35:39;28.57;30.98
77467;DHT22;66564;42.482;25.548;2023-09-19T10:38:10;28.52;31.05
77467;DHT22;66564;42.482;25.548;2023-09-19T10:40:37;28.47;31.15
77467;DHT22;66564;42.482;25.548;2023-09-19T10:43:06;28.43;31.16
77467;DHT22;66564;42.482;25.548;2023-09-19T10:45:33;28.54;31.56
77467;DHT22;66564;42.482;25.548;2023-09-19T10:48:00;28.67;32.11
77467;DHT22;66564;42.482;25.548;2023-09-19T10:50:30;28.79;31.82
77467;DHT22;66564;42.482;25.548;2023-09-19T10:53:00;28.92;31.50
77467;DHT22;66564;42.482;25.548;2023-09-19T10:55:31;29.02;31.33
77467;DHT22;66564;42.482;25.548;2023-09-19T10:58:00;29.08;30.75
77467;DHT22;66564;42.482;25.548;2023-09-19T11:00:25;29.12;30.86
77467;DHT22;66564;42.482;25.548;2023-09-19T11:05:39;29.10;31.11
77467;DHT22;66564;42.482;25.548;2023-09-19T11:08:06;29.18;30.93
77467;DHT22;66564;42.482;25.548;2023-09-19T11:10:51;29.08;30.61
77467;DHT22;66564;42.482;25.548;2023-09-19T11:26:44;29.56;31.07
77467;DHT22;66564;42.482;25.548;2023-09-19T11:29:25;29.74;30.49
77467;DHT22;66564;42.482;25.548;2023-09-19T11:31:51;29.93;31.11
77467;DHT22;66564;42.482;25.548;2023-09-19T11:37:01;30.03;29.51
77467;DHT22;66564;42.482;25.548;2023-09-19T11:39:29;30.06;29.17
77467;DHT22;66564;42.482;25.548;2023-09-19T11:41:55;30.15;29.62
77467;DHT22;66564;42.482;25.548;2023-09-19T11:49:28;30.62;28.34
77467;DHT22;66564;42.482;25.548;2023-09-19T11:51:58;30.64;28.91
77467;DHT22;66564;42.482;25.548;2023-09-19T11:54:30;30.67;29.64
77467;DHT22;66564;42.482;25.548;2023-09-19T11:56:58;30.71;28.29
77467;DHT22;66564;42.482;25.548;2023-09-19T11:59:29;30.64;28.47
77467;DHT22;66564;42.482;25.548;2023-09-19T12:02:03;30.68;28.54
77467;DHT22;66564;42.482;25.548;2023-09-19T12:04:38;30.62;28.43
77467;DHT22;66564;42.482;25.548;2023-09-19T12:07:09;30.59;28.63
77467;DHT22;66564;42.482;25.548;2023-09-19T12:09:43;30.57;28.38
77467;DHT22;66564;42.482;25.548;2023-09-19T12:12:19;30.52;28.35
77467;DHT22;66564;42.482;25.548;2023-09-19T12:14:49;30.13;28.76
77467;DHT22;66564;42.482;25.548;2023-09-19T12:17:15;29.86;29.29
77467;DHT22;66564;42.482;25.548;2023-09-19T12:20:10;29.63;29.67
77467;DHT22;66564;42.482;25.548;2023-09-19T12:22:40;29.53;29.50
77467;DHT22;66564;42.482;25.548;2023-09-19T12:25:06;29.34;29.78
77467;DHT22;66564;42.482;25.548;2023-09-19T12:27:41;29.23;30.15
77467;DHT22;66564;42.482;25.548;2023-09-19T12:30:10;29.19;30.45
77467;DHT22;66564;42.482;25.548;2023-09-19T12:32:39;29.06;30.38
77467;DHT22;66564;42.482;25.548;2023-09-19T12:35:06;29.00;30.32
77467;DHT22;66564;42.482;25.548;2023-09-19T12:37:45;28.71;30.76
77467;DHT22;66564;42.482;25.548;2023-09-19T12:40:13;28.54;31.26
77467;DHT22;66564;42.482;25.548;2023-09-19T12:42:48;28.35;31.43
77467;DHT22;66564;42.482;25.548;2023-09-19T12:45:15;28.28;31.98
77467;DHT22;66564;42.482;25.548;2023-09-19T12:53:32;27.94;32.40
77467;DHT22;66564;42.482;25.548;2023-09-19T12:55:59;27.80;32.16
77467;DHT22;66564;42.482;25.548;2023-09-19T12:58:25;27.64;32.65
77467;DHT22;66564;42.482;25.548;2023-09-19T13:00:50;27.54;32.83
77467;DHT22;66564;42.482;25.548;2023-09-19T13:08:25;27.63;32.55
77467;DHT22;66564;42.482;25.548;2023-09-19T13:13:35;27.67;32.82
77467;DHT22;66564;42.482;25.548;2023-09-19T13:16:02;27.70;32.81
77467;DHT22;66564;42.482;25.548;2023-09-19T13:18:28;27.69;33.02
77467;DHT22;66564;42.482;25.548;2023-09-19T13:21:10;27.63;32.73
77467;DHT22;66564;42.482;25.548;2023-09-19T13:23:41;27.70;33.11
77467;DHT22;66564;42.482;25.548;2023-09-19T13:26:09;27.74;32.97
77467;DHT22;66564;42.482;25.548;2023-09-19T13:28:37;27.69;32.77
77467;DHT22;66564;42.482;25.548;2023-09-19T13:31:02;27.74;32.75
77467;DHT22;66564;42.482;25.548;2023-09-19T13:33:28;27.77;32.12
77467;DHT22;66564;42.482;25.548;2023-09-19T13:35:53;27.63;32.62
77467;DHT22;66564;42.482;25.548;2023-09-19T13:38:19;27.67;32.54
77467;DHT22;66564;42.482;25.548;2023-09-19T13:40:47;27.76;32.64
77467;DHT22;66564;42.482;25.548;2023-09-19T13:43:13;27.86;32.41
77467;DHT22;66564;42.482;25.548;2023-09-19T13:45:39;27.98;32.65
77467;DHT22;66564;42.482;25.548;2023-09-19T13:48:07;28.05;32.03
77467;DHT22;66564;42.482;25.548;2023-09-19T13:50:34;28.07;31.95
77467;DHT22;66564;42.482;25.548;2023-09-19T13:53:01;28.13;32.35
77467;DHT22;66564;42.482;25.548;2023-09-19T13:55:27;28.08;32.21
77467;DHT22;66564;42.482;25.548;2023-09-19T13:57:53;27.98;31.70
77467;DHT22;66564;42.482;25.548;2023-09-19T14:00:24;27.89;32.10
77467;DHT22;66564;42.482;25.548;2023-09-19T14:02:50;27.83;32.09
77467;DHT22;66564;42.482;25.548;2023-09-19T14:05:16;27.84;32.20
77467;DHT22;66564;42.482;25.548;2023-09-19T14:07:43;27.74;32.44
77467;DHT22;66564;42.482;25.548;2023-09-19T14:10:10;27.73;32.40
77467;DHT22;66564;42.482;25.548;2023-09-19T14:12:39;27.73;32.55
77467;DHT22;66564;42.482;25.548;2023-09-19T14:15:10;27.76;32.81
77467;DHT22;66564;42.482;25.548;2023-09-19T14:17:37;27.74;32.67
77467;DHT22;66564;42.482;25.548;2023-09-19T14:20:02;27.74;32.21
77467;DHT22;66564;42.482;25.548;2023-09-19T14:22:28;27.74;32.52
77467;DHT22;66564;42.482;25.548;2023-09-19T14:24:54;27.74;32.09
77467;DHT22;66564;42.482;25.548;2023-09-19T14:27:20;27.67;32.49
77467;DHT22;66564;42.482;25.548;2023-09-19T14:29:45;27.70;32.93
77467;DHT22;66564;42.482;25.548;2023-09-19T14:32:10;27.70;32.36
77467;DHT22;66564;42.482;25.548;2023-09-19T14:34:36;27.77;31.81
77467;DHT22;66564;42.482;25.548;2023-09-19T14:37:10;27.66;32.38
77467;DHT22;66564;42.482;25.548;2023-09-19T14:39:36;27.59;32.77
77467;DHT22;66564;42.482;25.548;2023-09-19T14:42:04;27.49;32.84
77467;DHT22;66564;42.482;25.548;2023-09-19T14:44:29;27.46;32.25
77467;DHT22;66564;42.482;25.548;2023-09-19T14:46:55;27.36;32.75
77467;DHT22;66564;42.482;25.548;2023-09-19T14:49:23;27.29;33.34
77467;DHT22;66564;42.482;25.548;2023-09-19T14:51:50;27.18;32.97
77467;DHT22;66564;42.482;25.548;2023-09-19T14:54:17;27.08;33.19
77467;DHT22;66564;42.482;25.548;2023-09-19T14:56:44;27.00;33.97
77467;DHT22;66564;42.482;25.548;2023-09-19T14:59:09;26.98;34.89
77467;DHT22;66564;42.482;25.548;2023-09-19T15:01:36;26.92;34.35
77467;DHT22;66564;42.482;25.548;2023-09-19T15:04:05;26.84;34.30
77467;DHT22;66564;42.482;25.548;2023-09-19T15:06:32;26.72;34.48
77467;DHT22;66564;42.482;25.548;2023-09-19T15:08:57;26.67;34.91
77467;DHT22;66564;42.482;25.548;2023-09-19T15:11:23;26.54;34.79
77467;DHT22;66564;42.482;25.548;2023-09-19T15:13:52;26.49;35.09
77467;DHT22;66564;42.482;25.548;2023-09-19T15:16:17;26.33;35.24
77467;DHT22;66564;42.482;25.548;2023-09-19T15:18:45;26.18;35.83
77467;DHT22;66564;42.482;25.548;2023-09-19T15:21:13;26.11;36.06
77467;DHT22;66564;42.482;25.548;2023-09-19T15:23:42;25.97;36.09
77467;DHT22;66564;42.482;25.548;2023-09-19T15:26:11;25.96;36.17
77467;DHT22;66564;42.482;25.548;2023-09-19T15:28:37;25.89;36.58
77467;DHT22;66564;42.482;25.548;2023-09-19T15:31:08;25.80;36.61
77467;DHT22;66564;42.482;25.548;2023-09-19T15:33:34;25.67;36.86
77467;DHT22;66564;42.482;25.548;2023-09-19T15:36:07;25.57;36.98
77467;DHT22;66564;42.482;25.548;2023-09-19T15:41:23;25.46;38.27
77467;DHT22;66564;42.482;25.548;2023-09-19T15:43:49;25.37;38.79
77467;DHT22;66564;42.482;25.548;2023-09-19T15:46:14;25.25;39.50
77467;DHT22;66564;42.482;25.548;2023-09-19T15:48:41;25.15;39.70
77467;DHT22;66564;42.482;25.548;2023-09-19T15:51:06;25.01;39.54
77467;DHT22;66564;42.482;25.548;2023-09-19T15:53:48;24.89;39.34
77467;DHT22;66564;42.482;25.548;2023-09-19T15:56:18;24.86;39.25
77467;DHT22;66564;42.482;25.548;2023-09-19T15:58:44;24.79;39.54
77467;DHT22;66564;42.482;25.548;2023-09-19T16:01:10;24.72;39.42
77467;DHT22;66564;42.482;25.548;2023-09-19T16:03:42;24.68;39.19
77467;DHT22;66564;42.482;25.548;2023-09-19T16:06:16;24.60;39.36
77467;DHT22;66564;42.482;25.548;2023-09-19T16:08:44;24.62;38.87
77467;DHT22;66564;42.482;25.548;2023-09-19T16:11:10;24.47;39.89
77467;DHT22;66564;42.482;25.548;2023-09-19T16:13:37;24.32;40.21
77467;DHT22;66564;42.482;25.548;2023-09-19T16:16:03;24.21;40.44
77467;DHT22;66564;42.482;25.548;2023-09-19T16:18:29;24.14;39.85